This is the latest recevied weather packets stored in our database for station/object KD9DOE. If no packets are shown the sender has not sent any weather packets the latest 10 day(s).
| Time | Temp. | Humidity | Pressure | Rain* | Wind** | Luminosity | Snow |
|---|---|---|---|---|---|---|---|
| 1777914003 | 25° C | 25% | 998 hPa | 0 mm | - | 738 W/m² | - |
| 1777913698 | 25° C | 26% | 998.2 hPa | 0 mm | - | 709 W/m² | - |
| 1777913395 | 25° C | 25% | 998.3 hPa | 0 mm | - | 720 W/m² | - |
| 1777913092 | 25.56° C | 25% | 998.3 hPa | 0 mm | - | 699 W/m² | - |
| 1777912788 | 25° C | 25% | 998.3 hPa | 0 mm | - | 723 W/m² | - |
| 1777912484 | 24.44° C | 26% | 998.4 hPa | 0 mm | - | 711 W/m² | - |
| 1777912181 | 24.44° C | 25% | 998.5 hPa | 0 mm | - | 705 W/m² | - |
| 1777911877 | 23.89° C | 26% | 998.7 hPa | 0 mm | - | 695 W/m² | - |
| 1777911574 | 23.89° C | 28% | 998.5 hPa | 0 mm | - | 682 W/m² | - |
| 1777911269 | 23.89° C | 26% | 998.6 hPa | 0 mm | - | 632 W/m² | - |
| 1777910967 | 23.89° C | 26% | 998.7 hPa | 0 mm | - | 641 W/m² | - |
| 1777910665 | 23.89° C | 26% | 999 hPa | 0 mm | - | 634 W/m² | - |
| 1777910361 | 23.89° C | 26% | 998.7 hPa | 0 mm | - | 595 W/m² | - |
| 1777910058 | 23.33° C | 27% | 999 hPa | 0 mm | - | 659 W/m² | - |
| 1777909755 | 23.33° C | 27% | 999 hPa | 0 mm | - | 643 W/m² | - |
| 1777909452 | 23.89° C | 26% | 999.2 hPa | 0 mm | - | 620 W/m² | - |
| 1777909150 | 23.33° C | 27% | 999.3 hPa | 0 mm | - | 632 W/m² | - |
| 1777908848 | 23.33° C | 26% | 999.2 hPa | 0 mm | - | 601 W/m² | - |
| 1777908544 | 23.33° C | 28% | 999.4 hPa | 0 mm | - | 596 W/m² | - |
| 1777908241 | 22.78° C | 29% | 999.4 hPa | 0 mm | - | 585 W/m² | - |
| 1777907938 | 22.78° C | 29% | 999.6 hPa | 0 mm | - | 591 W/m² | - |
| 1777907633 | 22.78° C | 28% | 999.6 hPa | 0 mm | - | 584 W/m² | - |
| 1777907329 | 22.78° C | 29% | 999.6 hPa | 0 mm | - | 555 W/m² | - |
| 1777907025 | 22.22° C | 30% | 999.8 hPa | 0 mm | - | 565 W/m² | - |
| 1777906723 | 22.22° C | 30% | 999.9 hPa | 0 mm | - | 554 W/m² | - |
* Rain latest hour (hover to see other rain measurements)
** Current wind speed in m/s (hover to see current wind gust speed)